< < Back
Terminal Aerodrome Forecast


Current Version              Previous Versions:   1  2  3  4  5  6  7  8  9  

Terminal Aerodrome Forecast

841
FTUS42 KFFC 280213 AAA
TAFATL
TAF AMD
KATL 280213Z 2802/2906 08008KT P6SM FEW070
     FM281400 09008KT P6SM BKN045
     FM282100 06010KT P6SM SCT250
     FM290100 07005KT P6SM SCT250=

Latest METAR

372
SAUS70 KWBC 281000 RRF
MTRATL
METAR KATL 280952Z 06009KT 10SM CLR 24/22 A3014 RMK AO2 SLP193
T02390222


USA.gov is the U.S. government's official web portal to all federal, state and local government web resources and services.